sensor_id;sensor_type;location;lat;lon;timestamp;P1;durP1;ratioP1;P2;durP2;ratioP2
33830;SDS011;20137;48.834;8.732;2023-08-01T00:00:12;7.47;;;3.60;;
33830;SDS011;20137;48.834;8.732;2023-08-01T00:02:38;8.50;;;4.70;;
33830;SDS011;20137;48.834;8.732;2023-08-01T00:05:07;11.90;;;4.25;;
33830;SDS011;20137;48.834;8.732;2023-08-01T00:07:33;6.82;;;3.80;;
33830;SDS011;20137;48.834;8.732;2023-08-01T00:09:59;6.97;;;3.97;;
33830;SDS011;20137;48.834;8.732;2023-08-01T00:12:24;12.52;;;5.10;;
33830;SDS011;20137;48.834;8.732;2023-08-01T00:14:50;8.82;;;4.30;;
33830;SDS011;20137;48.834;8.732;2023-08-01T00:17:16;11.13;;;4.40;;
33830;SDS011;20137;48.834;8.732;2023-08-01T00:19:42;8.43;;;4.35;;
33830;SDS011;20137;48.834;8.732;2023-08-01T00:22:07;9.70;;;4.43;;
33830;SDS011;20137;48.834;8.732;2023-08-01T00:24:35;7.20;;;4.55;;
33830;SDS011;20137;48.834;8.732;2023-08-01T00:27:00;9.80;;;3.90;;
33830;SDS011;20137;48.834;8.732;2023-08-01T00:29:26;9.93;;;3.95;;
33830;SDS011;20137;48.834;8.732;2023-08-01T00:31:52;8.45;;;4.30;;
33830;SDS011;20137;48.834;8.732;2023-08-01T00:34:17;8.80;;;4.35;;
33830;SDS011;20137;48.834;8.732;2023-08-01T00:36:43;7.68;;;4.05;;
33830;SDS011;20137;48.834;8.732;2023-08-01T00:39:08;9.10;;;4.70;;
33830;SDS011;20137;48.834;8.732;2023-08-01T00:41:34;8.43;;;3.88;;
33830;SDS011;20137;48.834;8.732;2023-08-01T00:44:00;7.78;;;3.83;;
33830;SDS011;20137;48.834;8.732;2023-08-01T00:46:26;7.50;;;3.90;;
33830;SDS011;20137;48.834;8.732;2023-08-01T00:48:52;7.35;;;3.92;;
33830;SDS011;20137;48.834;8.732;2023-08-01T00:51:18;9.88;;;4.50;;
33830;SDS011;20137;48.834;8.732;2023-08-01T00:53:44;7.30;;;4.13;;
33830;SDS011;20137;48.834;8.732;2023-08-01T00:56:11;9.32;;;3.67;;
33830;SDS011;20137;48.834;8.732;2023-08-01T00:58:37;9.02;;;4.43;;
33830;SDS011;20137;48.834;8.732;2023-08-01T01:01:02;11.68;;;4.32;;
33830;SDS011;20137;48.834;8.732;2023-08-01T01:03:28;7.78;;;4.40;;
33830;SDS011;20137;48.834;8.732;2023-08-01T01:06:14;8.52;;;3.90;;
33830;SDS011;20137;48.834;8.732;2023-08-01T01:08:46;10.98;;;4.32;;
33830;SDS011;20137;48.834;8.732;2023-08-01T01:11:12;8.75;;;4.50;;
33830;SDS011;20137;48.834;8.732;2023-08-01T01:13:38;12.05;;;4.60;;
33830;SDS011;20137;48.834;8.732;2023-08-01T01:16:03;9.32;;;4.53;;
33830;SDS011;20137;48.834;8.732;2023-08-01T01:18:29;8.93;;;4.57;;
33830;SDS011;20137;48.834;8.732;2023-08-01T01:20:55;9.95;;;4.25;;
33830;SDS011;20137;48.834;8.732;2023-08-01T01:23:20;9.52;;;4.97;;
33830;SDS011;20137;48.834;8.732;2023-08-01T01:25:47;11.32;;;4.80;;
33830;SDS011;20137;48.834;8.732;2023-08-01T01:28:15;8.93;;;3.90;;
33830;SDS011;20137;48.834;8.732;2023-08-01T01:30:42;11.38;;;5.07;;
33830;SDS011;20137;48.834;8.732;2023-08-01T01:33:09;11.88;;;5.20;;
33830;SDS011;20137;48.834;8.732;2023-08-01T01:35:35;10.55;;;5.35;;
33830;SDS011;20137;48.834;8.732;2023-08-01T01:38:01;8.10;;;4.78;;
33830;SDS011;20137;48.834;8.732;2023-08-01T01:40:29;7.53;;;4.22;;
33830;SDS011;20137;48.834;8.732;2023-08-01T01:42:55;10.98;;;4.85;;
33830;SDS011;20137;48.834;8.732;2023-08-01T01:45:21;9.93;;;4.72;;
33830;SDS011;20137;48.834;8.732;2023-08-01T01:47:47;8.30;;;4.97;;
33830;SDS011;20137;48.834;8.732;2023-08-01T01:50:12;9.82;;;4.95;;
33830;SDS011;20137;48.834;8.732;2023-08-01T01:52:38;11.55;;;4.72;;
33830;SDS011;20137;48.834;8.732;2023-08-01T01:55:04;9.43;;;4.82;;
33830;SDS011;20137;48.834;8.732;2023-08-01T01:57:29;10.73;;;4.95;;
33830;SDS011;20137;48.834;8.732;2023-08-01T01:59:55;7.28;;;4.38;;
33830;SDS011;20137;48.834;8.732;2023-08-01T02:02:21;8.57;;;4.72;;
33830;SDS011;20137;48.834;8.732;2023-08-01T02:04:46;8.88;;;4.80;;
33830;SDS011;20137;48.834;8.732;2023-08-01T02:07:13;12.77;;;5.00;;
33830;SDS011;20137;48.834;8.732;2023-08-01T02:09:39;9.32;;;5.03;;
33830;SDS011;20137;48.834;8.732;2023-08-01T02:12:05;9.38;;;5.18;;
33830;SDS011;20137;48.834;8.732;2023-08-01T02:14:33;11.57;;;5.00;;
33830;SDS011;20137;48.834;8.732;2023-08-01T02:16:58;7.13;;;4.53;;
33830;SDS011;20137;48.834;8.732;2023-08-01T02:19:24;9.20;;;5.03;;
33830;SDS011;20137;48.834;8.732;2023-08-01T02:21:50;8.27;;;4.50;;
33830;SDS011;20137;48.834;8.732;2023-08-01T02:24:15;8.68;;;4.93;;
33830;SDS011;20137;48.834;8.732;2023-08-01T02:26:41;12.20;;;4.72;;
33830;SDS011;20137;48.834;8.732;2023-08-01T02:29:06;7.35;;;4.53;;
33830;SDS011;20137;48.834;8.732;2023-08-01T02:31:32;9.35;;;4.80;;
33830;SDS011;20137;48.834;8.732;2023-08-01T02:33:58;9.85;;;4.57;;
33830;SDS011;20137;48.834;8.732;2023-08-01T02:36:23;7.22;;;4.18;;
33830;SDS011;20137;48.834;8.732;2023-08-01T02:38:49;10.60;;;4.82;;
33830;SDS011;20137;48.834;8.732;2023-08-01T02:41:15;7.47;;;4.32;;
33830;SDS011;20137;48.834;8.732;2023-08-01T02:43:40;13.90;;;5.32;;
33830;SDS011;20137;48.834;8.732;2023-08-01T02:46:06;9.10;;;4.63;;
33830;SDS011;20137;48.834;8.732;2023-08-01T02:48:32;8.38;;;4.50;;
33830;SDS011;20137;48.834;8.732;2023-08-01T02:51:00;13.38;;;4.90;;
33830;SDS011;20137;48.834;8.732;2023-08-01T02:53:27;8.25;;;4.50;;
33830;SDS011;20137;48.834;8.732;2023-08-01T02:55:52;12.02;;;4.63;;
33830;SDS011;20137;48.834;8.732;2023-08-01T02:58:18;8.18;;;4.38;;
33830;SDS011;20137;48.834;8.732;2023-08-01T03:00:44;7.80;;;4.60;;
33830;SDS011;20137;48.834;8.732;2023-08-01T03:03:09;11.23;;;4.22;;
33830;SDS011;20137;48.834;8.732;2023-08-01T03:05:38;10.82;;;4.47;;
33830;SDS011;20137;48.834;8.732;2023-08-01T03:08:04;8.95;;;4.30;;
33830;SDS011;20137;48.834;8.732;2023-08-01T03:10:30;9.10;;;4.05;;
33830;SDS011;20137;48.834;8.732;2023-08-01T03:12:55;8.90;;;4.70;;
33830;SDS011;20137;48.834;8.732;2023-08-01T03:15:21;9.23;;;4.68;;
33830;SDS011;20137;48.834;8.732;2023-08-01T03:17:47;8.20;;;4.05;;
33830;SDS011;20137;48.834;8.732;2023-08-01T03:20:12;8.45;;;4.53;;
33830;SDS011;20137;48.834;8.732;2023-08-01T03:22:38;9.63;;;4.20;;
33830;SDS011;20137;48.834;8.732;2023-08-01T03:25:05;8.93;;;4.18;;
33830;SDS011;20137;48.834;8.732;2023-08-01T03:27:34;9.25;;;4.78;;
33830;SDS011;20137;48.834;8.732;2023-08-01T03:30:00;6.25;;;3.88;;
33830;SDS011;20137;48.834;8.732;2023-08-01T03:32:27;7.32;;;3.47;;
33830;SDS011;20137;48.834;8.732;2023-08-01T03:34:52;7.53;;;3.88;;
33830;SDS011;20137;48.834;8.732;2023-08-01T03:37:18;6.97;;;3.88;;
33830;SDS011;20137;48.834;8.732;2023-08-01T03:39:44;8.10;;;3.60;;
33830;SDS011;20137;48.834;8.732;2023-08-01T03:42:10;7.13;;;4.05;;
33830;SDS011;20137;48.834;8.732;2023-08-01T03:44:35;10.57;;;3.53;;
33830;SDS011;20137;48.834;8.732;2023-08-01T03:47:01;7.15;;;3.55;;
33830;SDS011;20137;48.834;8.732;2023-08-01T03:49:27;6.35;;;3.60;;
33830;SDS011;20137;48.834;8.732;2023-08-01T03:51:53;7.85;;;3.67;;
33830;SDS011;20137;48.834;8.732;2023-08-01T03:54:18;8.40;;;3.70;;
33830;SDS011;20137;48.834;8.732;2023-08-01T03:56:44;7.65;;;3.55;;
33830;SDS011;20137;48.834;8.732;2023-08-01T03:59:11;10.63;;;3.75;;
33830;SDS011;20137;48.834;8.732;2023-08-01T04:01:38;8.15;;;3.60;;
33830;SDS011;20137;48.834;8.732;2023-08-01T04:04:04;7.45;;;3.47;;
33830;SDS011;20137;48.834;8.732;2023-08-01T04:06:30;9.48;;;3.30;;
33830;SDS011;20137;48.834;8.732;2023-08-01T04:08:55;7.35;;;3.15;;
33830;SDS011;20137;48.834;8.732;2023-08-01T04:11:21;5.50;;;3.20;;
33830;SDS011;20137;48.834;8.732;2023-08-01T04:13:48;7.63;;;3.10;;
33830;SDS011;20137;48.834;8.732;2023-08-01T04:16:13;6.70;;;2.95;;
33830;SDS011;20137;48.834;8.732;2023-08-01T04:18:39;9.23;;;3.40;;
33830;SDS011;20137;48.834;8.732;2023-08-01T04:21:05;6.95;;;2.92;;
33830;SDS011;20137;48.834;8.732;2023-08-01T04:23:31;6.75;;;3.17;;
33830;SDS011;20137;48.834;8.732;2023-08-01T04:25:57;7.05;;;2.85;;
33830;SDS011;20137;48.834;8.732;2023-08-01T04:28:24;8.85;;;3.25;;
33830;SDS011;20137;48.834;8.732;2023-08-01T04:30:50;6.60;;;3.53;;
33830;SDS011;20137;48.834;8.732;2023-08-01T04:33:16;9.25;;;2.97;;
33830;SDS011;20137;48.834;8.732;2023-08-01T04:35:42;6.57;;;2.83;;
33830;SDS011;20137;48.834;8.732;2023-08-01T04:38:08;7.82;;;3.08;;
33830;SDS011;20137;48.834;8.732;2023-08-01T04:40:33;7.05;;;3.05;;
33830;SDS011;20137;48.834;8.732;2023-08-01T04:43:02;8.13;;;2.83;;
33830;SDS011;20137;48.834;8.732;2023-08-01T04:45:28;8.07;;;3.08;;
33830;SDS011;20137;48.834;8.732;2023-08-01T04:47:53;6.60;;;3.22;;
33830;SDS011;20137;48.834;8.732;2023-08-01T04:50:22;5.45;;;2.58;;
33830;SDS011;20137;48.834;8.732;2023-08-01T04:52:48;7.47;;;3.08;;
33830;SDS011;20137;48.834;8.732;2023-08-01T04:55:13;5.28;;;2.58;;
33830;SDS011;20137;48.834;8.732;2023-08-01T04:57:39;5.03;;;2.78;;
33830;SDS011;20137;48.834;8.732;2023-08-01T05:00:05;6.03;;;2.15;;
33830;SDS011;20137;48.834;8.732;2023-08-01T05:02:34;6.78;;;2.72;;
33830;SDS011;20137;48.834;8.732;2023-08-01T05:05:00;8.18;;;3.10;;
33830;SDS011;20137;48.834;8.732;2023-08-01T05:07:25;11.15;;;3.63;;
33830;SDS011;20137;48.834;8.732;2023-08-01T05:09:51;5.68;;;3.08;;
33830;SDS011;20137;48.834;8.732;2023-08-01T05:12:16;6.03;;;2.90;;
33830;SDS011;20137;48.834;8.732;2023-08-01T05:14:45;6.38;;;2.97;;
33830;SDS011;20137;48.834;8.732;2023-08-01T05:17:10;7.47;;;3.78;;
33830;SDS011;20137;48.834;8.732;2023-08-01T05:19:36;6.82;;;2.95;;
33830;SDS011;20137;48.834;8.732;2023-08-01T05:22:02;4.38;;;2.75;;
33830;SDS011;20137;48.834;8.732;2023-08-01T05:24:27;5.90;;;3.25;;
33830;SDS011;20137;48.834;8.732;2023-08-01T05:26:53;9.15;;;3.17;;
33830;SDS011;20137;48.834;8.732;2023-08-01T05:29:18;5.78;;;3.45;;
33830;SDS011;20137;48.834;8.732;2023-08-01T05:31:44;7.80;;;3.80;;
33830;SDS011;20137;48.834;8.732;2023-08-01T05:34:10;8.07;;;3.78;;
33830;SDS011;20137;48.834;8.732;2023-08-01T05:36:35;9.10;;;4.18;;
33830;SDS011;20137;48.834;8.732;2023-08-01T05:39:02;9.90;;;4.32;;
33830;SDS011;20137;48.834;8.732;2023-08-01T05:41:28;10.05;;;4.35;;
33830;SDS011;20137;48.834;8.732;2023-08-01T05:43:54;7.80;;;3.97;;
33830;SDS011;20137;48.834;8.732;2023-08-01T05:46:19;6.32;;;3.33;;
33830;SDS011;20137;48.834;8.732;2023-08-01T05:48:45;8.65;;;4.25;;
33830;SDS011;20137;48.834;8.732;2023-08-01T05:51:11;9.02;;;4.22;;
33830;SDS011;20137;48.834;8.732;2023-08-01T05:53:36;7.22;;;4.20;;
33830;SDS011;20137;48.834;8.732;2023-08-01T05:56:02;8.68;;;4.00;;
33830;SDS011;20137;48.834;8.732;2023-08-01T05:58:29;7.85;;;4.10;;
33830;SDS011;20137;48.834;8.732;2023-08-01T06:00:55;9.45;;;4.32;;
33830;SDS011;20137;48.834;8.732;2023-08-01T06:03:21;10.85;;;4.38;;
33830;SDS011;20137;48.834;8.732;2023-08-01T06:05:47;6.38;;;3.45;;
33830;SDS011;20137;48.834;8.732;2023-08-01T06:08:12;5.38;;;3.38;;
33830;SDS011;20137;48.834;8.732;2023-08-01T06:10:40;8.55;;;4.28;;
33830;SDS011;20137;48.834;8.732;2023-08-01T06:13:06;12.50;;;4.57;;
33830;SDS011;20137;48.834;8.732;2023-08-01T06:15:32;7.45;;;4.03;;
33830;SDS011;20137;48.834;8.732;2023-08-01T06:17:58;8.18;;;4.13;;
33830;SDS011;20137;48.834;8.732;2023-08-01T06:20:23;7.30;;;4.47;;
33830;SDS011;20137;48.834;8.732;2023-08-01T06:22:49;7.68;;;4.20;;
33830;SDS011;20137;48.834;8.732;2023-08-01T06:25:15;9.00;;;4.32;;
33830;SDS011;20137;48.834;8.732;2023-08-01T06:27:40;6.53;;;3.80;;
33830;SDS011;20137;48.834;8.732;2023-08-01T06:30:06;9.50;;;4.18;;
33830;SDS011;20137;48.834;8.732;2023-08-01T06:32:32;6.88;;;4.57;;
33830;SDS011;20137;48.834;8.732;2023-08-01T06:34:58;8.40;;;5.00;;
33830;SDS011;20137;48.834;8.732;2023-08-01T06:37:24;6.97;;;4.15;;
33830;SDS011;20137;48.834;8.732;2023-08-01T06:39:49;9.45;;;5.32;;
33830;SDS011;20137;48.834;8.732;2023-08-01T06:42:15;12.57;;;5.00;;
33830;SDS011;20137;48.834;8.732;2023-08-01T06:44:41;10.07;;;4.63;;
33830;SDS011;20137;48.834;8.732;2023-08-01T06:47:07;10.50;;;4.85;;
33830;SDS011;20137;48.834;8.732;2023-08-01T06:49:33;7.97;;;4.40;;
33830;SDS011;20137;48.834;8.732;2023-08-01T06:51:58;8.27;;;4.57;;
33830;SDS011;20137;48.834;8.732;2023-08-01T06:54:24;8.05;;;4.50;;
33830;SDS011;20137;48.834;8.732;2023-08-01T06:56:50;7.93;;;4.65;;
33830;SDS011;20137;48.834;8.732;2023-08-01T06:59:16;11.32;;;4.97;;
33830;SDS011;20137;48.834;8.732;2023-08-01T07:01:42;6.38;;;4.30;;
33830;SDS011;20137;48.834;8.732;2023-08-01T07:04:12;10.50;;;5.10;;
33830;SDS011;20137;48.834;8.732;2023-08-01T07:06:38;6.55;;;4.05;;
33830;SDS011;20137;48.834;8.732;2023-08-01T07:09:04;10.40;;;4.70;;
33830;SDS011;20137;48.834;8.732;2023-08-01T07:11:30;7.55;;;4.38;;
33830;SDS011;20137;48.834;8.732;2023-08-01T07:13:56;9.50;;;4.28;;
33830;SDS011;20137;48.834;8.732;2023-08-01T07:16:21;8.77;;;4.32;;
33830;SDS011;20137;48.834;8.732;2023-08-01T07:18:47;7.25;;;3.97;;
33830;SDS011;20137;48.834;8.732;2023-08-01T07:21:13;6.70;;;3.95;;
33830;SDS011;20137;48.834;8.732;2023-08-01T07:23:39;7.13;;;4.30;;
33830;SDS011;20137;48.834;8.732;2023-08-01T07:26:05;7.90;;;4.00;;
33830;SDS011;20137;48.834;8.732;2023-08-01T07:28:31;7.22;;;3.40;;
33830;SDS011;20137;48.834;8.732;2023-08-01T07:31:06;7.95;;;4.60;;
33830;SDS011;20137;48.834;8.732;2023-08-01T07:33:32;7.82;;;3.85;;
33830;SDS011;20137;48.834;8.732;2023-08-01T07:35:59;6.60;;;3.65;;
33830;SDS011;20137;48.834;8.732;2023-08-01T07:38:25;5.57;;;3.20;;
33830;SDS011;20137;48.834;8.732;2023-08-01T07:40:54;6.03;;;2.70;;
33830;SDS011;20137;48.834;8.732;2023-08-01T07:43:22;5.07;;;2.80;;
33830;SDS011;20137;48.834;8.732;2023-08-01T07:45:48;3.92;;;2.53;;
33830;SDS011;20137;48.834;8.732;2023-08-01T07:48:15;4.60;;;2.80;;
33830;SDS011;20137;48.834;8.732;2023-08-01T07:50:41;4.88;;;2.20;;
33830;SDS011;20137;48.834;8.732;2023-08-01T07:53:07;4.82;;;2.60;;
33830;SDS011;20137;48.834;8.732;2023-08-01T07:55:33;3.28;;;1.92;;
33830;SDS011;20137;48.834;8.732;2023-08-01T07:58:00;3.97;;;2.00;;
33830;SDS011;20137;48.834;8.732;2023-08-01T08:00:25;3.80;;;1.88;;
33830;SDS011;20137;48.834;8.732;2023-08-01T08:02:53;4.55;;;2.05;;
33830;SDS011;20137;48.834;8.732;2023-08-01T08:05:18;2.60;;;1.70;;
33830;SDS011;20137;48.834;8.732;2023-08-01T08:07:44;2.45;;;1.40;;
33830;SDS011;20137;48.834;8.732;2023-08-01T08:10:10;2.67;;;1.50;;
33830;SDS011;20137;48.834;8.732;2023-08-01T08:12:35;4.20;;;1.42;;
33830;SDS011;20137;48.834;8.732;2023-08-01T08:15:01;2.30;;;1.50;;
33830;SDS011;20137;48.834;8.732;2023-08-01T08:17:27;2.38;;;1.20;;
33830;SDS011;20137;48.834;8.732;2023-08-01T08:19:53;2.58;;;1.30;;
33830;SDS011;20137;48.834;8.732;2023-08-01T08:22:18;1.60;;;0.98;;
33830;SDS011;20137;48.834;8.732;2023-08-01T08:24:44;2.03;;;1.10;;
33830;SDS011;20137;48.834;8.732;2023-08-01T08:27:10;1.75;;;0.88;;
33830;SDS011;20137;48.834;8.732;2023-08-01T08:29:35;1.40;;;1.00;;
33830;SDS011;20137;48.834;8.732;2023-08-01T08:32:01;1.73;;;0.80;;
33830;SDS011;20137;48.834;8.732;2023-08-01T08:34:27;0.88;;;0.75;;
33830;SDS011;20137;48.834;8.732;2023-08-01T08:36:52;1.33;;;0.90;;
33830;SDS011;20137;48.834;8.732;2023-08-01T08:39:18;4.85;;;0.90;;
33830;SDS011;20137;48.834;8.732;2023-08-01T08:41:50;1.00;;;0.70;;
33830;SDS011;20137;48.834;8.732;2023-08-01T08:44:18;1.70;;;0.70;;
33830;SDS011;20137;48.834;8.732;2023-08-01T08:46:52;0.85;;;0.65;;
33830;SDS011;20137;48.834;8.732;2023-08-01T08:49:21;1.70;;;0.90;;
33830;SDS011;20137;48.834;8.732;2023-08-01T08:51:48;1.70;;;1.00;;
33830;SDS011;20137;48.834;8.732;2023-08-01T08:54:15;0.30;;;0.30;;
33830;SDS011;20137;48.834;8.732;2023-08-01T08:56:41;1.83;;;0.40;;
33830;SDS011;20137;48.834;8.732;2023-08-01T08:59:07;0.50;;;0.40;;
33830;SDS011;20137;48.834;8.732;2023-08-01T09:01:35;1.25;;;0.68;;
33830;SDS011;20137;48.834;8.732;2023-08-01T09:04:01;0.52;;;0.40;;
33830;SDS011;20137;48.834;8.732;2023-08-01T09:06:28;0.40;;;0.40;;
33830;SDS011;20137;48.834;8.732;2023-08-01T09:09:18;0.30;;;0.30;;
33830;SDS011;20137;48.834;8.732;2023-08-01T09:11:50;0.30;;;0.30;;
33830;SDS011;20137;48.834;8.732;2023-08-01T09:14:17;3.00;;;0.47;;
33830;SDS011;20137;48.834;8.732;2023-08-01T09:16:44;0.70;;;0.30;;
33830;SDS011;20137;48.834;8.732;2023-08-01T09:19:15;0.20;;;0.20;;
33830;SDS011;20137;48.834;8.732;2023-08-01T09:21:42;0.20;;;0.20;;
33830;SDS011;20137;48.834;8.732;2023-08-01T09:24:09;0.20;;;0.20;;
33830;SDS011;20137;48.834;8.732;2023-08-01T09:26:36;0.57;;;0.35;;
33830;SDS011;20137;48.834;8.732;2023-08-01T09:29:01;0.28;;;0.25;;
33830;SDS011;20137;48.834;8.732;2023-08-01T09:31:34;0.30;;;0.30;;
33830;SDS011;20137;48.834;8.732;2023-08-01T09:34:02;1.10;;;0.40;;
33830;SDS011;20137;48.834;8.732;2023-08-01T09:36:33;1.95;;;0.50;;
33830;SDS011;20137;48.834;8.732;2023-08-01T09:38:59;0.40;;;0.40;;
33830;SDS011;20137;48.834;8.732;2023-08-01T09:41:26;1.90;;;0.45;;
33830;SDS011;20137;48.834;8.732;2023-08-01T09:43:53;0.57;;;0.43;;
33830;SDS011;20137;48.834;8.732;2023-08-01T09:46:19;1.58;;;0.45;;
33830;SDS011;20137;48.834;8.732;2023-08-01T09:48:45;0.30;;;0.30;;
33830;SDS011;20137;48.834;8.732;2023-08-01T09:51:14;0.95;;;0.52;;
33830;SDS011;20137;48.834;8.732;2023-08-01T09:53:49;1.15;;;0.55;;
33830;SDS011;20137;48.834;8.732;2023-08-01T09:56:18;1.15;;;0.57;;
33830;SDS011;20137;48.834;8.732;2023-08-01T09:58:48;0.98;;;0.60;;
33830;SDS011;20137;48.834;8.732;2023-08-01T10:01:15;1.00;;;0.80;;
33830;SDS011;20137;48.834;8.732;2023-08-01T10:03:44;1.00;;;0.80;;
33830;SDS011;20137;48.834;8.732;2023-08-01T10:06:13;0.60;;;0.60;;
33830;SDS011;20137;48.834;8.732;2023-08-01T10:08:47;1.20;;;0.68;;
33830;SDS011;20137;48.834;8.732;2023-08-01T10:11:14;1.25;;;0.50;;
33830;SDS011;20137;48.834;8.732;2023-08-01T10:13:42;0.93;;;0.63;;
33830;SDS011;20137;48.834;8.732;2023-08-01T10:16:08;0.95;;;0.60;;
33830;SDS011;20137;48.834;8.732;2023-08-01T10:18:36;1.48;;;0.50;;
33830;SDS011;20137;48.834;8.732;2023-08-01T10:21:03;1.48;;;0.88;;
33830;SDS011;20137;48.834;8.732;2023-08-01T10:23:31;0.88;;;0.60;;
33830;SDS011;20137;48.834;8.732;2023-08-01T10:25:58;2.28;;;0.88;;
33830;SDS011;20137;48.834;8.732;2023-08-01T10:28:35;1.52;;;1.00;;
33830;SDS011;20137;48.834;8.732;2023-08-01T10:31:08;1.13;;;0.90;;
33830;SDS011;20137;48.834;8.732;2023-08-01T10:33:41;1.08;;;0.63;;
33830;SDS011;20137;48.834;8.732;2023-08-01T10:36:12;1.75;;;0.90;;
33830;SDS011;20137;48.834;8.732;2023-08-01T10:38:51;1.92;;;1.17;;
33830;SDS011;20137;48.834;8.732;2023-08-01T10:41:32;1.25;;;1.10;;
33830;SDS011;20137;48.834;8.732;2023-08-01T10:44:09;1.25;;;0.75;;
33830;SDS011;20137;48.834;8.732;2023-08-01T10:49:11;1.95;;;1.00;;
33830;SDS011;20137;48.834;8.732;2023-08-01T10:51:37;1.48;;;1.10;;
33830;SDS011;20137;48.834;8.732;2023-08-01T10:54:03;3.20;;;1.40;;
33830;SDS011;20137;48.834;8.732;2023-08-01T10:56:28;1.38;;;1.08;;
33830;SDS011;20137;48.834;8.732;2023-08-01T10:58:56;2.90;;;1.30;;
33830;SDS011;20137;48.834;8.732;2023-08-01T11:01:22;4.93;;;1.73;;
33830;SDS011;20137;48.834;8.732;2023-08-01T11:03:48;1.58;;;1.10;;
33830;SDS011;20137;48.834;8.732;2023-08-01T11:06:15;2.97;;;1.25;;
33830;SDS011;20137;48.834;8.732;2023-08-01T11:08:41;1.77;;;1.05;;
33830;SDS011;20137;48.834;8.732;2023-08-01T11:11:10;4.03;;;1.60;;
33830;SDS011;20137;48.834;8.732;2023-08-01T11:13:37;3.42;;;1.52;;
33830;SDS011;20137;48.834;8.732;2023-08-01T11:16:03;2.05;;;1.20;;
33830;SDS011;20137;48.834;8.732;2023-08-01T11:18:30;5.43;;;1.40;;
33830;SDS011;20137;48.834;8.732;2023-08-01T11:20:56;3.28;;;1.33;;
33830;SDS011;20137;48.834;8.732;2023-08-01T11:23:29;1.90;;;1.35;;
33830;SDS011;20137;48.834;8.732;2023-08-01T11:25:54;2.03;;;1.38;;
33830;SDS011;20137;48.834;8.732;2023-08-01T11:28:20;2.15;;;1.35;;
33830;SDS011;20137;48.834;8.732;2023-08-01T11:30:48;2.03;;;1.40;;
33830;SDS011;20137;48.834;8.732;2023-08-01T11:33:20;2.03;;;1.52;;
33830;SDS011;20137;48.834;8.732;2023-08-01T11:35:51;6.35;;;1.50;;
33830;SDS011;20137;48.834;8.732;2023-08-01T11:38:27;2.85;;;1.20;;
33830;SDS011;20137;48.834;8.732;2023-08-01T11:40:56;1.80;;;1.52;;
33830;SDS011;20137;48.834;8.732;2023-08-01T11:43:22;2.58;;;1.55;;
33830;SDS011;20137;48.834;8.732;2023-08-01T11:45:52;4.85;;;1.67;;
33830;SDS011;20137;48.834;8.732;2023-08-01T11:48:20;2.78;;;1.38;;
33830;SDS011;20137;48.834;8.732;2023-08-01T11:50:47;4.00;;;1.38;;
33830;SDS011;20137;48.834;8.732;2023-08-01T11:53:19;2.70;;;1.42;;
33830;SDS011;20137;48.834;8.732;2023-08-01T11:55:46;2.05;;;1.30;;
33830;SDS011;20137;48.834;8.732;2023-08-01T11:58:12;1.70;;;1.13;;
33830;SDS011;20137;48.834;8.732;2023-08-01T12:00:39;3.03;;;1.42;;
33830;SDS011;20137;48.834;8.732;2023-08-01T12:03:06;2.47;;;1.33;;
33830;SDS011;20137;48.834;8.732;2023-08-01T12:05:38;3.90;;;1.50;;
33830;SDS011;20137;48.834;8.732;2023-08-01T12:08:12;2.38;;;1.50;;
33830;SDS011;20137;48.834;8.732;2023-08-01T12:10:39;5.90;;;1.50;;
33830;SDS011;20137;48.834;8.732;2023-08-01T12:13:18;2.75;;;1.10;;
33830;SDS011;20137;48.834;8.732;2023-08-01T12:15:46;3.50;;;1.30;;
33830;SDS011;20137;48.834;8.732;2023-08-01T12:18:19;1.83;;;1.27;;
33830;SDS011;20137;48.834;8.732;2023-08-01T12:20:48;2.45;;;1.48;;
33830;SDS011;20137;48.834;8.732;2023-08-01T12:23:14;3.45;;;1.42;;
33830;SDS011;20137;48.834;8.732;2023-08-01T12:25:40;3.25;;;1.40;;
33830;SDS011;20137;48.834;8.732;2023-08-01T12:28:05;3.28;;;1.60;;
33830;SDS011;20137;48.834;8.732;2023-08-01T12:30:31;2.35;;;1.55;;
33830;SDS011;20137;48.834;8.732;2023-08-01T12:32:57;2.13;;;1.40;;
33830;SDS011;20137;48.834;8.732;2023-08-01T12:35:22;3.70;;;1.65;;
33830;SDS011;20137;48.834;8.732;2023-08-01T12:37:48;3.05;;;1.73;;
33830;SDS011;20137;48.834;8.732;2023-08-01T12:40:15;3.70;;;1.50;;
33830;SDS011;20137;48.834;8.732;2023-08-01T12:42:41;3.20;;;1.50;;
33830;SDS011;20137;48.834;8.732;2023-08-01T12:45:06;2.63;;;1.73;;
33830;SDS011;20137;48.834;8.732;2023-08-01T12:47:32;4.47;;;1.35;;
33830;SDS011;20137;48.834;8.732;2023-08-01T12:49:58;3.58;;;1.70;;
33830;SDS011;20137;48.834;8.732;2023-08-01T12:52:24;4.63;;;1.42;;
33830;SDS011;20137;48.834;8.732;2023-08-01T12:54:50;4.78;;;1.58;;
33830;SDS011;20137;48.834;8.732;2023-08-01T12:57:16;2.42;;;1.40;;
33830;SDS011;20137;48.834;8.732;2023-08-01T12:59:42;3.92;;;1.92;;
33830;SDS011;20137;48.834;8.732;2023-08-01T13:02:07;2.83;;;1.60;;
33830;SDS011;20137;48.834;8.732;2023-08-01T13:04:33;4.65;;;1.42;;
33830;SDS011;20137;48.834;8.732;2023-08-01T13:06:59;3.42;;;1.40;;
33830;SDS011;20137;48.834;8.732;2023-08-01T13:09:25;3.05;;;1.60;;
33830;SDS011;20137;48.834;8.732;2023-08-01T13:11:51;3.05;;;1.42;;
33830;SDS011;20137;48.834;8.732;2023-08-01T13:14:17;2.72;;;1.90;;
33830;SDS011;20137;48.834;8.732;2023-08-01T13:16:42;3.10;;;1.50;;
33830;SDS011;20137;48.834;8.732;2023-08-01T13:19:08;3.28;;;1.60;;
33830;SDS011;20137;48.834;8.732;2023-08-01T13:21:34;3.72;;;1.63;;
33830;SDS011;20137;48.834;8.732;2023-08-01T13:24:00;3.67;;;1.40;;
33830;SDS011;20137;48.834;8.732;2023-08-01T13:26:30;3.13;;;1.40;;
33830;SDS011;20137;48.834;8.732;2023-08-01T13:28:56;3.72;;;1.50;;
33830;SDS011;20137;48.834;8.732;2023-08-01T13:31:23;4.15;;;1.35;;
33830;SDS011;20137;48.834;8.732;2023-08-01T13:33:49;3.92;;;1.55;;
33830;SDS011;20137;48.834;8.732;2023-08-01T13:36:14;5.32;;;1.80;;
33830;SDS011;20137;48.834;8.732;2023-08-01T13:38:42;3.35;;;1.50;;
33830;SDS011;20137;48.834;8.732;2023-08-01T13:41:07;5.72;;;1.55;;
33830;SDS011;20137;48.834;8.732;2023-08-01T13:43:33;3.33;;;1.40;;
33830;SDS011;20137;48.834;8.732;2023-08-01T13:45:59;3.42;;;1.67;;
33830;SDS011;20137;48.834;8.732;2023-08-01T13:48:24;2.85;;;1.45;;
33830;SDS011;20137;48.834;8.732;2023-08-01T13:50:50;2.78;;;1.60;;
33830;SDS011;20137;48.834;8.732;2023-08-01T13:53:17;3.92;;;1.52;;
33830;SDS011;20137;48.834;8.732;2023-08-01T13:55:43;3.95;;;1.70;;
33830;SDS011;20137;48.834;8.732;2023-08-01T13:58:09;4.15;;;1.55;;
33830;SDS011;20137;48.834;8.732;2023-08-01T14:00:34;3.25;;;1.63;;
33830;SDS011;20137;48.834;8.732;2023-08-01T14:03:00;3.63;;;1.30;;
33830;SDS011;20137;48.834;8.732;2023-08-01T14:05:27;3.13;;;1.33;;
33830;SDS011;20137;48.834;8.732;2023-08-01T14:07:53;4.28;;;1.70;;
33830;SDS011;20137;48.834;8.732;2023-08-01T14:10:19;3.78;;;1.30;;
33830;SDS011;20137;48.834;8.732;2023-08-01T14:12:46;2.63;;;1.10;;
33830;SDS011;20137;48.834;8.732;2023-08-01T14:15:12;5.15;;;1.65;;
33830;SDS011;20137;48.834;8.732;2023-08-01T14:17:38;2.40;;;1.17;;
33830;SDS011;20137;48.834;8.732;2023-08-01T14:20:04;2.22;;;1.38;;
33830;SDS011;20137;48.834;8.732;2023-08-01T14:22:30;2.58;;;1.55;;
33830;SDS011;20137;48.834;8.732;2023-08-01T14:24:55;3.45;;;1.40;;
33830;SDS011;20137;48.834;8.732;2023-08-01T14:27:21;2.63;;;1.40;;
33830;SDS011;20137;48.834;8.732;2023-08-01T14:29:47;8.75;;;1.40;;
33830;SDS011;20137;48.834;8.732;2023-08-01T14:32:13;2.88;;;1.33;;
33830;SDS011;20137;48.834;8.732;2023-08-01T14:34:44;4.30;;;1.60;;
33830;SDS011;20137;48.834;8.732;2023-08-01T14:37:10;2.22;;;1.27;;
33830;SDS011;20137;48.834;8.732;2023-08-01T14:39:36;2.58;;;1.42;;
33830;SDS011;20137;48.834;8.732;2023-08-01T14:42:01;2.03;;;1.40;;
33830;SDS011;20137;48.834;8.732;2023-08-01T14:44:27;3.75;;;1.40;;